Time;durP1;ratioP1;P1;durP2;ratioP2;P2;SDS_P1;SDS_P2;PMS_P1;PMS_P2;Temp;Humidity;BMP_temperature;BMP_pressure;BME280_temperature;BME280_humidity;BME280_pressure;Samples;Min_cycle;Max_cycle;Signal;HPM_P1;HPM_P2
2021/12/10 00:02:02;;;;;;;;;;;;;;;3.15;72.60;98137.53;4991663;28;19949;-84
2021/12/10 00:04:31;;;;;;;;;;;;;;;3.17;72.83;98130.47;4993068;28;19940;-85
2021/12/10 00:06:59;;;;;;;;;;;;;;;3.15;72.81;98129.69;4991935;28;20024;-85
2021/12/10 00:09:27;;;;;;;;;;;;;;;3.16;72.71;98111.31;4992935;28;19973;-83
2021/12/10 00:11:55;;;;;;;;;;;;;;;3.18;72.79;98106.00;4992891;28;19972;-82
2021/12/10 00:14:24;;;;;;;;;;;;;;;3.20;73.06;98097.16;4993004;28;19918;-84
2021/12/10 00:16:49;;;;;;;;;;;;;;;3.19;72.83;98099.84;4990898;28;19921;-83
2021/12/10 00:19:32;;;;;;;;;;;;;;;3.24;72.87;98092.69;4992922;28;19924;-84
2021/12/10 04:20:50;;;;;;;;;;;;;;;3.30;95.20;97531.34;4980637;28;19974;-85
2021/12/10 04:23:17;;;;;;;;;;;;;;;3.34;94.53;97525.91;4982627;28;19922;-86
2021/12/10 04:25:43;;;;;;;;;;;;;;;3.29;93.66;97522.66;4983081;28;19922;-85
2021/12/10 04:28:10;;;;;;;;;;;;;;;3.22;93.45;97510.78;4983456;28;20442;-85
2021/12/10 04:30:39;;;;;;;;;;;;;;;3.13;92.96;97508.63;4983661;28;19918;-86
2021/12/10 04:33:05;;;;;;;;;;;;;;;3.11;92.68;97494.78;4980730;28;19917;-85
2021/12/10 04:35:31;;;;;;;;;;;;;;;3.05;92.20;97490.69;4983047;28;19918;-86
2021/12/10 04:37:56;;;;;;;;;;;;;;;3.06;91.97;97488.00;4980961;28;20365;-85
2021/12/10 04:40:22;;;;;;;;;;;;;;;2.98;91.57;97478.81;4983493;28;19933;-85
2021/12/10 04:42:47;;;;;;;;;;;;;;;2.99;91.06;97476.13;4982592;28;20349;-86
2021/12/10 04:45:14;;;;;;;;;;;;;;;2.94;90.56;97467.66;4982747;28;20281;-86
2021/12/10 04:47:39;;;;;;;;;;;;;;;2.91;90.19;97462.59;4981337;28;20160;-86
2021/12/10 04:50:08;;;;;;;;;;;;;;;2.84;89.72;97456.81;4982764;28;19914;-85
2021/12/10 04:52:36;;;;;;;;;;;;;;;2.81;89.38;97446.50;4982721;28;19965;-85
2021/12/10 04:55:03;;;;;;;;;;;;;;;2.82;88.79;97442.09;4983518;28;20265;-85
2021/12/10 04:57:28;;;;;;;;;;;;;;;2.79;88.53;97434.41;4982490;28;19973;-85
2021/12/10 04:59:54;;;;;;;;;;;;;;;2.77;88.22;97431.03;4981418;28;20000;-84
2021/12/10 05:02:19;;;;;;;;;;;;;;;2.79;87.56;97429.19;4981930;28;19914;-85
2021/12/10 05:04:47;;;;;;;;;;;;;;;2.68;87.26;97417.47;4981682;28;20363;-85
2021/12/10 05:07:13;;;;;;;;;;;;;;;2.65;87.64;97415.00;4982652;28;20025;-84
2021/12/10 05:09:39;;;;;;;;;;;;;;;2.69;87.91;97411.31;4982331;28;19925;-84
2021/12/10 05:12:04;;;;;;;;;;;;;;;2.79;89.63;97405.63;4982205;28;19922;-84
2021/12/10 05:14:31;;;;;;;;;;;;;;;2.92;92.26;97401.50;4983180;28;19918;-85
2021/12/10 05:16:59;;;;;;;;;;;;;;;2.89;93.42;97396.44;4984995;28;19918;-84
2021/12/10 05:19:27;;;;;;;;;;;;;;;2.86;94.34;97386.94;4984729;28;19923;-85
2021/12/10 05:21:52;;;;;;;;;;;;;;;2.82;94.85;97379.34;4985941;28;19926;-85
2021/12/10 05:24:17;;;;;;;;;;;;;;;2.72;94.83;97385.00;4986351;28;19945;-85
2021/12/10 05:26:43;;;;;;;;;;;;;;;2.74;95.08;97377.09;4986633;28;20377;-84
2021/12/10 05:29:09;;;;;;;;;;;;;;;2.69;94.79;97379.94;4986333;28;19918;-85
2021/12/10 05:31:35;;;;;;;;;;;;;;;2.68;94.53;97362.56;4985836;28;20283;-85
2021/12/10 05:34:00;;;;;;;;;;;;;;;2.63;94.26;97361.97;4983697;28;19918;-85
2021/12/10 05:36:27;;;;;;;;;;;;;;;2.64;93.70;97358.41;4986258;28;19922;-85
2021/12/10 05:38:53;;;;;;;;;;;;;;;2.63;93.67;97359.34;5000502;28;19922;-86
2021/12/10 05:41:18;;;;;;;;;;;;;;;2.61;93.25;97345.47;4986016;28;19964;-85
2021/12/10 05:43:43;;;;;;;;;;;;;;;2.53;92.91;97345.84;4985589;28;20352;-85
2021/12/10 05:46:09;;;;;;;;;;;;;;;2.56;92.60;97341.41;4976181;28;20278;-86
2021/12/10 08:43:14;;;;;;;;;;;;;;;1.88;79.50;97182.72;5541855;23;19988;-83
2021/12/10 08:45:40;;;;;;;;;;;;;;;1.86;79.48;97188.03;5001189;28;20470;-84
2021/12/10 08:48:06;;;;;;;;;;;;;;;1.84;79.42;97187.25;5002923;28;20284;-84
2021/12/10 08:50:32;;;;;;;;;;;;;;;1.84;79.55;97196.88;5001280;28;19926;-84
2021/12/10 08:52:59;;;;;;;;;;;;;;;1.84;79.33;97192.47;5002549;28;19924;-84
2021/12/10 08:55:25;;;;;;;;;;;;;;;1.86;79.33;97195.03;5001992;28;19917;-83
2021/12/10 08:57:51;;;;;;;;;;;;;;;1.84;79.12;97192.47;5001187;28;20015;-84
2021/12/10 09:00:17;;;;;;;;;;;;;;;1.84;78.99;97187.25;5001947;28;20441;-85
2021/12/10 09:02:43;;;;;;;;;;;;;;;1.87;78.99;97189.72;5001637;28;20430;-85
2021/12/10 09:05:09;;;;;;;;;;;;;;;1.87;78.83;97191.47;5001952;28;19972;-82
2021/12/10 09:07:35;;;;;;;;;;;;;;;1.87;78.89;97181.03;5002060;28;19922;-84
2021/12/10 09:10:00;;;;;;;;;;;;;;;1.88;78.67;97188.78;5001895;28;20024;-83
2021/12/10 09:12:27;;;;;;;;;;;;;;;1.91;78.78;97175.56;5001028;28;20376;-82
2021/12/10 09:14:54;;;;;;;;;;;;;;;1.92;78.82;97184.28;5000967;28;20324;-83
2021/12/10 09:17:23;;;;;;;;;;;;;;;1.96;78.97;97176.22;5000005;28;19921;-85
2021/12/10 09:19:49;;;;;;;;;;;;;;;1.93;78.83;97170.28;5002451;28;19918;-83
2021/12/10 09:22:15;;;;;;;;;;;;;;;1.96;78.73;97171.00;5008831;28;19917;-84
2021/12/10 09:24:41;;;;;;;;;;;;;;;1.98;78.78;97171.75;5000837;28;19925;-83
2021/12/10 09:27:06;;;;;;;;;;;;;;;1.98;78.72;97169.13;5000685;28;20190;-83
2021/12/10 09:29:35;;;;;;;;;;;;;;;1.97;78.70;97169.22;5002027;28;19921;-83
2021/12/10 09:32:01;;;;;;;;;;;;;;;2.01;78.77;97160.31;5001693;28;19940;-84
2021/12/10 09:34:26;;;;;;;;;;;;;;;2.04;78.66;97162.75;5016986;28;19972;-85
2021/12/10 09:36:52;;;;;;;;;;;;;;;2.04;78.75;97162.75;5002146;28;19921;-84
2021/12/10 09:39:20;;;;;;;;;;;;;;;2.08;78.70;97166.06;5001642;28;20404;-85
2021/12/10 09:41:45;;;;;;;;;;;;;;;2.07;78.62;97151.31;5001850;28;19941;-85
2021/12/10 09:44:11;;;;;;;;;;;;;;;2.09;78.49;97157.28;5000606;28;20265;-85
2021/12/10 09:46:37;;;;;;;;;;;;;;;2.07;78.38;97153.94;5000558;28;19917;-85
2021/12/10 09:49:04;;;;;;;;;;;;;;;2.11;78.36;97151.09;5002063;28;19921;-84
2021/12/10 09:51:32;;;;;;;;;;;;;;;2.12;78.29;97151.91;5001939;28;19925;-85
2021/12/10 09:53:59;;;;;;;;;;;;;;;2.16;78.22;97149.06;5001765;28;19918;-84
2021/12/10 09:56:25;;;;;;;;;;;;;;;2.13;77.97;97153.63;5000619;28;20007;-85
2021/12/10 09:58:53;;;;;;;;;;;;;;;2.15;77.86;97144.78;5000206;28;20009;-86
2021/12/10 10:01:29;;;;;;;;;;;;;;;2.18;77.84;97149.84;5002384;28;19960;-85
2021/12/10 10:04:01;;;;;;;;;;;;;;;2.16;77.57;97143.84;5004803;28;19928;-85
2021/12/10 10:06:28;;;;;;;;;;;;;;;2.20;77.81;97147.13;5003970;28;20014;-84
2021/12/10 10:08:53;;;;;;;;;;;;;;;2.21;77.66;97142.78;5004687;28;19921;-85
2021/12/10 10:11:21;;;;;;;;;;;;;;;2.24;77.71;97146.06;5004777;28;19941;-85
2021/12/10 10:13:48;;;;;;;;;;;;;;;2.22;77.72;97139.22;5003674;28;19922;-85
2021/12/10 10:16:13;;;;;;;;;;;;;;;2.24;77.63;97137.41;5004847;28;19925;-85
2021/12/10 10:18:40;;;;;;;;;;;;;;;2.23;77.80;97133.91;5004792;28;20287;-85
2021/12/10 10:21:10;;;;;;;;;;;;;;;2.26;77.78;97133.75;5004508;28;19926;-85
2021/12/10 10:23:38;;;;;;;;;;;;;;;2.27;77.59;97137.25;5004541;28;19929;-85
2021/12/10 10:26:05;;;;;;;;;;;;;;;2.30;77.63;97131.88;5004541;28;19918;-85
2021/12/10 10:28:30;;;;;;;;;;;;;;;2.29;77.42;97124.94;5003045;28;19925;-86
2021/12/10 10:31:01;;;;;;;;;;;;;;;2.31;77.49;97123.94;5004754;28;19918;-85
2021/12/10 10:33:28;;;;;;;;;;;;;;;2.28;77.16;97113.66;5004885;28;19917;-86
2021/12/10 10:35:57;;;;;;;;;;;;;;;2.31;77.11;97123.94;5004339;28;19933;-85
2021/12/10 10:38:23;;;;;;;;;;;;;;;2.33;77.13;97116.00;5005097;28;19961;-84
2021/12/10 10:40:52;;;;;;;;;;;;;;;2.36;76.98;97113.22;5004700;28;19957;-85
2021/12/10 10:43:18;;;;;;;;;;;;;;;2.36;76.94;97105.38;5002911;28;19918;-85
2021/12/10 10:45:44;;;;;;;;;;;;;;;2.32;76.88;97109.94;5004563;28;20374;-85
2021/12/10 10:48:11;;;;;;;;;;;;;;;2.36;76.70;97105.38;5004399;28;19926;-85
2021/12/10 10:50:49;;;;;;;;;;;;;;;2.42;76.69;97109.47;5003980;28;19921;-85
2021/12/10 10:53:16;;;;;;;;;;;;;;;2.42;76.60;97106.84;5004095;28;19925;-85
2021/12/10 10:56:03;;;;;;;;;;;;;;;2.44;76.64;97105.84;5004031;28;19933;-84
2021/12/10 10:58:32;;;;;;;;;;;;;;;2.43;76.58;97104.16;5002377;28;20276;-84
2021/12/10 11:01:03;;;;;;;;;;;;;;;2.49;76.68;97102.97;5004246;28;19922;-84
2021/12/10 11:03:37;;;;;;;;;;;;;;;2.47;76.43;97100.47;5004142;28;19928;-83
2021/12/10 11:06:04;;;;;;;;;;;;;;;2.49;76.24;97100.34;5004144;28;19945;-85
2021/12/10 11:08:30;;;;;;;;;;;;;;;2.49;76.06;97103.84;5003726;28;19947;-85
2021/12/10 11:11:04;;;;;;;;;;;;;;;2.51;75.81;97095.91;5002906;28;19917;-84
2021/12/10 11:13:31;;;;;;;;;;;;;;;2.50;76.00;97102.06;5000521;28;19929;-85
2021/12/10 11:16:04;;;;;;;;;;;;;;;2.55;76.08;97102.66;5003619;28;20369;-84
2021/12/10 11:18:38;;;;;;;;;;;;;;;2.56;75.99;97095.66;5003562;28;19975;-85
2021/12/10 11:21:03;;;;;;;;;;;;;;;2.57;75.98;97100.81;5003594;28;19917;-85
2021/12/10 11:23:31;;;;;;;;;;;;;;;2.58;76.08;97105.09;5002489;28;19976;-84
2021/12/10 11:25:56;;;;;;;;;;;;;;;2.59;76.06;97103.34;5003958;28;19924;-85
2021/12/10 11:28:29;;;;;;;;;;;;;;;2.62;75.72;97104.03;5000569;28;21955;-85
2021/12/10 11:31:15;;;;;;;;;;;;;;;2.61;75.80;97101.50;5003633;28;20304;-85
2021/12/10 11:33:44;;;;;;;;;;;;;;;2.64;75.67;97101.31;5003241;28;19925;-85
2021/12/10 11:36:18;;;;;;;;;;;;;;;2.62;75.45;97105.81;5018174;28;19943;-84
2021/12/10 11:38:50;;;;;;;;;;;;;;;2.65;75.68;97103.00;5002038;28;19943;-85
2021/12/10 11:41:17;;;;;;;;;;;;;;;2.68;75.79;97102.84;5003153;28;19918;-85
2021/12/10 11:43:52;;;;;;;;;;;;;;;2.69;75.64;97107.97;5001552;28;19928;-85
2021/12/10 11:46:33;;;;;;;;;;;;;;;2.71;75.71;97108.75;5003006;28;20376;-83
2021/12/10 11:49:00;;;;;;;;;;;;;;;2.72;75.60;97105.19;5003935;28;19972;-84
2021/12/10 11:51:26;;;;;;;;;;;;;;;2.72;75.69;97104.38;5003103;28;19918;-84
2021/12/10 11:53:52;;;;;;;;;;;;;;;2.75;75.69;97111.22;5003565;28;20410;-84
2021/12/10 11:56:26;;;;;;;;;;;;;;;2.73;75.90;97109.53;5003552;28;19944;-84
2021/12/10 11:59:04;;;;;;;;;;;;;;;2.75;75.77;97104.22;5001354;28;19929;-85
2021/12/10 12:01:29;;;;;;;;;;;;;;;2.78;75.74;97104.03;5001241;28;19924;-86
2021/12/10 12:03:55;;;;;;;;;;;;;;;2.79;75.82;97112.72;4993400;28;19921;-85
2021/12/10 12:06:20;;;;;;;;;;;;;;;2.82;75.86;97117.78;5003518;28;19918;-85
2021/12/10 12:08:45;;;;;;;;;;;;;;;2.81;75.69;97118.72;5001541;28;20002;-84
2021/12/10 12:11:11;;;;;;;;;;;;;;;2.85;75.83;97118.47;5001269;28;19918;-84
2021/12/10 12:13:41;;;;;;;;;;;;;;;2.83;75.86;97114.25;5001242;28;20365;-84
2021/12/10 12:16:14;;;;;;;;;;;;;;;2.82;75.71;97110.78;5002921;28;19922;-84
2021/12/10 12:18:41;;;;;;;;;;;;;;;2.88;75.94;97120.06;5001795;28;20391;-85
2021/12/10 12:26:51;;;;;;;;;;;;;;;2.94;75.92;97116.31;5003189;28;19928;-85
2021/12/10 12:29:17;;;;;;;;;;;;;;;2.94;75.81;97122.38;5001065;28;20288;-84
2021/12/10 12:31:42;;;;;;;;;;;;;;;2.94;75.68;97132.81;5002265;28;19928;-85
2021/12/10 12:34:10;;;;;;;;;;;;;;;2.96;75.93;97130.97;5001166;28;20012;-86
2021/12/10 12:36:41;;;;;;;;;;;;;;;2.96;75.89;97130.97;5002484;28;20364;-85
2021/12/10 12:39:08;;;;;;;;;;;;;;;2.98;76.00;97126.47;5002298;28;20312;-84
2021/12/10 12:41:43;;;;;;;;;;;;;;;2.99;76.24;97128.19;5002052;28;20295;-85
2021/12/10 12:44:26;;;;;;;;;;;;;;;3.00;76.02;97134.25;4999639;28;19922;-85
2021/12/10 12:47:00;;;;;;;;;;;;;;;3.01;75.95;97139.41;5002599;28;19928;-84
2021/12/10 12:49:26;;;;;;;;;;;;;;;3.05;75.99;97140.94;5001097;28;19922;-85
2021/12/10 12:52:06;;;;;;;;;;;;;;;3.19;76.84;97141.94;5002500;28;20435;-85
2021/12/10 12:54:32;;;;;;;;;;;;;;;3.41;78.96;97141.59;5002434;28;19917;-84
2021/12/10 12:56:59;;;;;;;;;;;;;;;3.55;80.72;97140.81;5001523;28;20389;-85
2021/12/10 12:59:24;;;;;;;;;;;;;;;3.61;82.55;97143.94;5001489;28;19917;-84
2021/12/10 13:01:52;;;;;;;;;;;;;;;3.66;83.95;97150.69;5001955;28;19925;-85
2021/12/10 13:04:20;;;;;;;;;;;;;;;3.63;85.26;97149.09;5000889;28;19922;-84
2021/12/10 13:07:02;;;;;;;;;;;;;;;3.61;86.38;97148.34;5001712;28;20324;-86
2021/12/10 13:09:44;;;;;;;;;;;;;;;3.60;87.45;97157.13;5001748;28;20435;-85
2021/12/10 13:12:26;;;;;;;;;;;;;;;3.56;88.40;97160.84;5000428;28;20393;-86
2021/12/10 13:14:57;;;;;;;;;;;;;;;3.49;89.35;97164.72;5002038;28;20024;-84
2021/12/10 13:17:25;;;;;;;;;;;;;;;3.43;90.21;97161.53;5002175;28;19928;-85
2021/12/10 13:19:53;;;;;;;;;;;;;;;3.41;90.93;97160.75;5001852;28;20277;-85
2021/12/10 13:22:21;;;;;;;;;;;;;;;3.37;91.53;97163.66;5002414;28;19918;-86
2021/12/10 13:24:49;;;;;;;;;;;;;;;3.37;92.39;97171.50;5000463;28;19925;-85
2021/12/10 13:27:16;;;;;;;;;;;;;;;3.36;93.18;97170.66;5000491;28;20193;-85
2021/12/10 13:29:41;;;;;;;;;;;;;;;3.35;94.04;97174.22;5001901;28;20012;-85
2021/12/10 13:32:07;;;;;;;;;;;;;;;3.37;95.20;97176.75;5001609;28;20355;-84
2021/12/10 13:34:33;;;;;;;;;;;;;;;3.44;96.90;97184.16;5000649;28;19972;-86
2021/12/10 13:36:59;;;;;;;;;;;;;;;3.61;99.30;97185.00;5004865;28;20341;-84
2021/12/10 13:39:24;;;;;;;;;;;;;;;3.79;100.00;97188.34;5005806;28;20419;-83
2021/12/10 13:41:50;;;;;;;;;;;;;;;3.95;100.00;97193.56;5005640;28;19922;-84
2021/12/10 13:44:32;;;;;;;;;;;;;;;4.05;100.00;97194.72;5004016;28;19929;-83
2021/12/10 13:47:03;;;;;;;;;;;;;;;4.12;100.00;97190.81;5004865;28;19928;-84
2021/12/10 13:49:43;;;;;;;;;;;;;;;4.19;100.00;97197.38;5005245;28;19918;-85
2021/12/10 13:52:09;;;;;;;;;;;;;;;4.25;100.00;97200.59;5004305;28;19945;-83
2021/12/10 13:54:34;;;;;;;;;;;;;;;4.31;100.00;97210.72;5005149;28;19922;-84
2021/12/10 13:57:02;;;;;;;;;;;;;;;4.34;100.00;97210.50;5004859;28;19968;-85
2021/12/10 13:59:30;;;;;;;;;;;;;;;4.39;100.00;97208.50;5003636;28;19943;-84
2021/12/10 14:01:57;;;;;;;;;;;;;;;4.48;100.00;97217.59;5005026;28;19925;-85
2021/12/10 14:04:25;;;;;;;;;;;;;;;4.48;100.00;97223.69;5004947;28;19929;-85
2021/12/10 14:06:52;;;;;;;;;;;;;;;4.54;100.00;97232.97;5004913;28;20020;-85
2021/12/10 14:09:39;;;;;;;;;;;;;;;4.55;100.00;97227.63;5004375;28;19917;-85
2021/12/10 14:12:10;;;;;;;;;;;;;;;4.61;100.00;97222.94;5003697;28;19922;-84
2021/12/10 14:14:37;;;;;;;;;;;;;;;4.66;100.00;97228.75;5004839;28;19972;-82
2021/12/10 14:17:04;;;;;;;;;;;;;;;4.67;100.00;97238.31;5005091;28;19929;-84
2021/12/10 14:19:31;;;;;;;;;;;;;;;4.71;100.00;97240.66;5004799;28;19944;-83
2021/12/10 14:21:56;;;;;;;;;;;;;;;4.73;100.00;97249.28;5004751;28;19917;-83
2021/12/10 14:24:34;;;;;;;;;;;;;;;4.77;100.00;97247.34;5004892;28;19926;-84
2021/12/10 14:27:04;;;;;;;;;;;;;;;4.46;100.00;97250.94;5002165;28;19918;-84
2021/12/10 14:29:29;;;;;;;;;;;;;;;3.73;100.00;97260.25;5005001;28;19914;-83
2021/12/10 14:31:55;;;;;;;;;;;;;;;3.47;100.00;97268.72;5004788;28;19922;-83
2021/12/10 14:34:22;;;;;;;;;;;;;;;3.28;100.00;97275.75;5004267;28;20029;-84
2021/12/10 14:37:02;;;;;;;;;;;;;;;3.21;100.00;97286.66;5004549;28;19917;-84
2021/12/10 14:39:27;;;;;;;;;;;;;;;3.18;100.00;97286.81;5004616;28;19914;-84
2021/12/10 14:41:54;;;;;;;;;;;;;;;3.04;100.00;97295.38;5004562;28;19929;-83
2021/12/10 14:44:25;;;;;;;;;;;;;;;2.96;100.00;97300.16;5002797;28;20012;-83
2021/12/10 14:46:50;;;;;;;;;;;;;;;3.00;98.73;97314.75;5002354;28;19965;-83
2021/12/10 14:49:36;;;;;;;;;;;;;;;2.98;97.45;97312.22;5003729;28;19957;-83
2021/12/10 14:52:07;;;;;;;;;;;;;;;2.90;96.35;97310.03;5004561;28;20364;-85
2021/12/10 14:54:49;;;;;;;;;;;;;;;2.92;95.55;97317.81;5004014;28;19968;-85
2021/12/10 14:57:14;;;;;;;;;;;;;;;2.83;94.64;97313.03;5002536;28;19921;-85
2021/12/10 14:59:40;;;;;;;;;;;;;;;2.76;93.98;97316.88;5004233;28;20365;-85
2021/12/10 15:02:09;;;;;;;;;;;;;;;2.69;93.25;97316.34;5003694;28;20353;-84
2021/12/10 15:04:37;;;;;;;;;;;;;;;2.73;92.65;97323.94;5004355;28;19917;-84
2021/12/10 15:07:08;;;;;;;;;;;;;;;2.62;92.10;97328.03;5003696;28;19929;-83
2021/12/10 15:10:03;;;;;;;;;;;;;;;2.66;91.34;97334.78;5003928;28;19925;-84
2021/12/10 15:12:47;;;;;;;;;;;;;;;2.63;90.37;97334.94;4987747;28;20363;-83
2021/12/10 15:15:13;;;;;;;;;;;;;;;2.58;89.98;97335.16;5003843;28;20000;-84
2021/12/10 15:17:38;;;;;;;;;;;;;;;2.54;89.50;97346.72;5003945;28;20017;-84
2021/12/10 15:20:18;;;;;;;;;;;;;;;2.50;89.08;97360.84;5003380;28;20001;-84
2021/12/10 15:22:45;;;;;;;;;;;;;;;2.49;88.61;97364.38;5003152;28;19992;-84
2021/12/10 15:25:16;;;;;;;;;;;;;;;2.44;88.08;97362.00;5003525;28;20313;-84
2021/12/10 15:27:42;;;;;;;;;;;;;;;2.45;87.73;97375.91;5002055;28;19925;-84
2021/12/10 15:30:11;;;;;;;;;;;;;;;2.40;87.41;97367.47;5003384;28;19922;-84
2021/12/10 15:32:37;;;;;;;;;;;;;;;2.37;87.41;97381.50;5003118;28;19921;-85
2021/12/10 15:35:05;;;;;;;;;;;;;;;2.33;86.74;97388.66;5001911;28;19929;-86
2021/12/10 15:37:32;;;;;;;;;;;;;;;2.35;86.29;97389.41;5003581;28;19928;-85
2021/12/10 15:40:17;;;;;;;;;;;;;;;2.30;86.08;97388.81;5003017;28;19921;-85
2021/12/10 15:42:43;;;;;;;;;;;;;;;2.28;86.11;97401.09;5001481;28;19928;-85
2021/12/10 15:45:12;;;;;;;;;;;;;;;2.29;86.12;97401.94;5001960;28;19926;-84
2021/12/10 15:47:40;;;;;;;;;;;;;;;2.24;85.76;97407.38;5002815;28;19922;-85
2021/12/10 15:50:06;;;;;;;;;;;;;;;2.22;85.74;97409.22;5003399;28;20373;-84
2021/12/10 15:52:31;;;;;;;;;;;;;;;2.21;85.85;97420.59;5003527;28;19929;-85
2021/12/10 15:54:58;;;;;;;;;;;;;;;2.17;85.45;97411.19;5002633;28;19918;-84
2021/12/10 15:57:33;;;;;;;;;;;;;;;2.18;85.25;97411.09;5001997;28;20008;-83
2021/12/10 16:00:02;;;;;;;;;;;;;;;2.16;85.14;97427.78;5002317;28;20377;-85
2021/12/10 16:02:30;;;;;;;;;;;;;;;2.20;84.97;97434.56;5002624;28;19918;-84
2021/12/10 16:05:01;;;;;;;;;;;;;;;2.13;84.73;97431.38;5002428;28;19917;-84
2021/12/10 16:07:28;;;;;;;;;;;;;;;2.11;84.76;97442.84;5003174;28;19917;-85
2021/12/10 16:10:00;;;;;;;;;;;;;;;2.06;84.49;97452.63;5002726;28;20009;-85
2021/12/10 16:12:26;;;;;;;;;;;;;;;2.08;84.72;97453.44;5001566;28;19968;-84
2021/12/10 16:14:53;;;;;;;;;;;;;;;2.05;84.29;97458.78;5002487;28;19965;-85
2021/12/10 16:17:18;;;;;;;;;;;;;;;2.02;84.32;97466.78;5002412;28;19918;-84
2021/12/10 16:19:45;;;;;;;;;;;;;;;2.04;84.09;97464.94;5002438;28;20266;-84
2021/12/10 16:22:11;;;;;;;;;;;;;;;2.01;83.86;97465.94;5003010;28;19979;-84
2021/12/10 16:24:42;;;;;;;;;;;;;;;1.97;83.82;97467.81;5002763;28;19918;-85
2021/12/10 16:27:12;;;;;;;;;;;;;;;1.96;83.65;97466.13;5001029;28;19917;-85
2021/12/10 16:29:43;;;;;;;;;;;;;;;1.97;83.66;97461.75;5002369;28;19948;-84
2021/12/10 16:32:15;;;;;;;;;;;;;;;1.96;83.78;97479.19;5002183;28;19925;-84
2021/12/10 16:34:42;;;;;;;;;;;;;;;1.94;83.83;97486.22;5000277;28;20029;-86
2021/12/10 16:37:08;;;;;;;;;;;;;;;1.93;83.95;97487.16;5000903;28;20024;-84
2021/12/10 16:39:36;;;;;;;;;;;;;;;1.91;83.94;97483.75;5002056;28;19976;-85
2021/12/10 16:42:01;;;;;;;;;;;;;;;1.93;83.71;97487.16;5001050;28;19952;-85
2021/12/10 16:44:27;;;;;;;;;;;;;;;1.92;83.88;97489.84;5000864;28;19925;-85
2021/12/10 16:46:57;;;;;;;;;;;;;;;1.90;83.58;97489.91;5001313;28;20401;-85
2021/12/10 16:49:24;;;;;;;;;;;;;;;1.93;83.46;97501.97;5002430;28;19922;-85
2021/12/10 16:51:53;;;;;;;;;;;;;;;1.89;83.40;97509.09;5000674;28;20525;-86
2021/12/10 16:54:21;;;;;;;;;;;;;;;1.92;83.87;97511.56;5007010;28;19928;-85
2021/12/10 16:56:48;;;;;;;;;;;;;;;1.93;84.14;97523.72;5001638;28;19929;-84
2021/12/10 16:59:14;;;;;;;;;;;;;;;1.91;84.41;97517.72;5000541;28;19925;-84
2021/12/10 17:01:47;;;;;;;;;;;;;;;1.86;84.72;97521.44;5000577;28;19948;-83
2021/12/10 17:04:13;;;;;;;;;;;;;;;1.84;84.44;97529.34;4999013;28;19933;-84
2021/12/10 17:06:44;;;;;;;;;;;;;;;1.83;83.89;97530.25;4998067;28;20380;-83
2021/12/10 17:09:10;;;;;;;;;;;;;;;1.88;83.72;97537.91;5001677;28;19921;-84
2021/12/10 17:11:38;;;;;;;;;;;;;;;1.81;83.25;97542.53;5003284;28;20383;-84
2021/12/10 17:14:07;;;;;;;;;;;;;;;1.79;83.01;97541.78;5004494;28;19921;-84
2021/12/10 17:16:45;;;;;;;;;;;;;;;1.82;82.76;97552.09;5004981;28;19926;-84
2021/12/10 17:19:14;;;;;;;;;;;;;;;1.77;82.58;97547.06;5021327;28;20388;-83
2021/12/10 17:21:48;;;;;;;;;;;;;;;1.79;82.67;97560.03;5005124;28;19917;-85
2021/12/10 17:24:14;;;;;;;;;;;;;;;1.76;82.37;97560.19;5002654;28;19921;-84
2021/12/10 17:26:42;;;;;;;;;;;;;;;1.73;82.47;97566.38;5004243;28;19925;-84
2021/12/10 17:29:10;;;;;;;;;;;;;;;1.72;82.32;97569.88;5004288;28;19922;-83
2021/12/10 17:31:37;;;;;;;;;;;;;;;1.74;82.18;97575.03;5004129;28;19933;-83
2021/12/10 17:34:06;;;;;;;;;;;;;;;1.71;81.88;97578.66;5005163;28;19926;-83
2021/12/10 17:36:34;;;;;;;;;;;;;;;1.71;81.97;97572.56;5003688;28;19940;-82
2021/12/10 17:39:01;;;;;;;;;;;;;;;1.70;81.81;97592.59;5000914;28;19929;-83
2021/12/10 17:41:29;;;;;;;;;;;;;;;1.74;81.94;97595.94;5004970;28;20274;-84
2021/12/10 17:43:56;;;;;;;;;;;;;;;1.71;81.87;97607.38;5003199;28;19921;-84
2021/12/10 17:46:25;;;;;;;;;;;;;;;1.71;82.14;97607.38;5005432;28;19933;-83
2021/12/10 17:48:53;;;;;;;;;;;;;;;1.73;82.33;97604.69;5004681;28;19932;-83
2021/12/10 17:51:20;;;;;;;;;;;;;;;1.72;82.43;97618.66;5003912;28;19959;-83
2021/12/10 17:53:49;;;;;;;;;;;;;;;1.74;82.29;97614.19;5004709;28;20468;-83
2021/12/10 17:56:17;;;;;;;;;;;;;;;1.68;81.76;97619.72;5004143;28;19922;-83
2021/12/10 17:58:43;;;;;;;;;;;;;;;1.68;81.65;97627.53;5004627;28;19933;-84
2021/12/10 18:01:10;;;;;;;;;;;;;;;1.74;81.77;97629.88;5005143;28;19928;-84
2021/12/10 18:03:40;;;;;;;;;;;;;;;1.75;81.50;97636.81;5003408;28;19922;-83
2021/12/10 18:06:06;;;;;;;;;;;;;;;1.73;81.26;97642.09;5004689;28;20040;-83
2021/12/10 18:08:33;;;;;;;;;;;;;;;1.69;81.26;97640.53;5004616;28;19989;-83
2021/12/10 18:11:01;;;;;;;;;;;;;;;1.70;81.05;97644.81;5004369;28;20373;-83
2021/12/10 18:13:28;;;;;;;;;;;;;;;1.71;81.08;97643.06;5002859;28;19949;-82
2021/12/10 18:15:55;;;;;;;;;;;;;;;1.72;81.17;97652.59;5005641;28;20388;-83
2021/12/10 18:18:23;;;;;;;;;;;;;;;1.75;81.45;97655.09;5003074;28;19933;-83
2021/12/10 18:20:55;;;;;;;;;;;;;;;1.74;81.26;97667.31;5025965;28;19957;-83
2021/12/10 18:23:26;;;;;;;;;;;;;;;1.72;81.11;97668.25;5003258;28;19925;-84
2021/12/10 18:25:57;;;;;;;;;;;;;;;1.72;81.39;97668.25;5004750;28;20353;-83
2021/12/10 18:28:24;;;;;;;;;;;;;;;1.74;81.39;97666.44;5002826;28;19922;-84
2021/12/10 18:30:53;;;;;;;;;;;;;;;1.73;81.33;97683.03;5004484;28;19922;-84
2021/12/10 18:33:18;;;;;;;;;;;;;;;1.76;81.25;97685.50;5004434;28;19922;-84
2021/12/10 18:35:45;;;;;;;;;;;;;;;1.71;81.14;97687.44;5003614;28;20379;-83
2021/12/10 18:38:15;;;;;;;;;;;;;;;1.68;81.07;97698.03;5003849;28;19985;-83
2021/12/10 18:40:42;;;;;;;;;;;;;;;1.69;80.73;97695.38;5004013;28;19941;-84
2021/12/10 18:43:13;;;;;;;;;;;;;;;1.69;80.50;97697.09;5025461;28;19928;-83
2021/12/10 18:45:42;;;;;;;;;;;;;;;1.70;80.35;97702.25;5017414;28;20011;-84
2021/12/10 18:48:09;;;;;;;;;;;;;;;1.71;80.26;97703.97;5002905;28;19945;-84
2021/12/10 18:50:41;;;;;;;;;;;;;;;1.67;80.16;97717.22;5004257;28;19925;-84
2021/12/10 18:53:07;;;;;;;;;;;;;;;1.69;79.96;97716.25;5004139;28;19997;-84
2021/12/10 18:55:43;;;;;;;;;;;;;;;1.67;80.07;97723.28;5002445;28;20653;-84
2021/12/10 18:58:10;;;;;;;;;;;;;;;1.68;79.90;97726.75;5002387;28;19948;-83
2021/12/10 19:00:39;;;;;;;;;;;;;;;1.69;79.59;97736.28;5004460;28;19979;-84
2021/12/10 19:03:07;;;;;;;;;;;;;;;1.68;79.66;97743.25;5003279;28;19996;-83
2021/12/10 19:05:43;;;;;;;;;;;;;;;1.73;79.47;97749.16;5002007;28;20824;-83
2021/12/10 19:08:22;;;;;;;;;;;;;;;1.71;79.24;97745.75;5001997;28;19922;-84
2021/12/10 19:10:49;;;;;;;;;;;;;;;1.70;79.25;97759.72;5002599;28;19925;-83
2021/12/10 19:13:20;;;;;;;;;;;;;;;1.67;78.78;97772.88;5002771;28;19926;-84
2021/12/10 19:15:52;;;;;;;;;;;;;;;1.71;79.03;97773.59;5000429;28;19918;-84
2021/12/10 19:18:21;;;;;;;;;;;;;;;1.71;79.34;97773.59;5016823;28;20000;-85
2021/12/10 19:20:50;;;;;;;;;;;;;;;1.67;79.15;97769.44;5000969;28;20326;-82
2021/12/10 19:23:17;;;;;;;;;;;;;;;1.68;78.99;97776.38;5002126;28;19928;-84
2021/12/10 19:25:45;;;;;;;;;;;;;;;1.69;78.50;97780.66;4997577;28;20408;-83
2021/12/10 19:28:14;;;;;;;;;;;;;;;1.69;79.04;97788.50;5000546;28;19918;-84
2021/12/10 19:30:42;;;;;;;;;;;;;;;1.71;78.84;97787.53;5001219;28;19921;-84
2021/12/10 19:33:10;;;;;;;;;;;;;;;1.72;78.65;97794.44;5003259;28;19922;-84
2021/12/10 19:35:41;;;;;;;;;;;;;;;1.75;78.96;97803.94;5000070;28;19925;-83
2021/12/10 19:38:09;;;;;;;;;;;;;;;1.75;79.39;97803.94;5009239;28;19961;-84
2021/12/10 19:40:46;;;;;;;;;;;;;;;1.75;79.09;97816.97;5001320;28;19925;-83
2021/12/10 19:43:20;;;;;;;;;;;;;;;1.76;78.96;97824.75;5002609;28;19929;-84
2021/12/10 19:45:57;;;;;;;;;;;;;;;1.72;78.67;97822.31;5014338;28;19972;-83
2021/12/10 19:48:42;;;;;;;;;;;;;;;1.73;78.86;97829.25;5001336;28;19931;-84
2021/12/10 19:51:31;;;;;;;;;;;;;;;1.77;78.79;97842.13;5002077;28;20296;-84
2021/12/10 19:54:03;;;;;;;;;;;;;;;1.75;78.68;97845.72;5001856;28;19955;-84
2021/12/10 19:56:34;;;;;;;;;;;;;;;1.79;78.61;97860.38;4998661;28;19948;-83
2021/12/10 19:59:05;;;;;;;;;;;;;;;1.78;78.16;97854.28;5000885;28;19925;-84
2021/12/10 20:01:34;;;;;;;;;;;;;;;1.74;77.64;97862.28;5000270;28;19922;-84
2021/12/10 20:04:00;;;;;;;;;;;;;;;1.77;77.45;97870.00;5001119;28;19922;-84